sensor_id;sensor_type;location;lat;lon;timestamp;temperature;humidity
17066;DHT22;23120;52.336;21.182;2022-12-05T00:00:20;1.30;97.70
17066;DHT22;23120;52.336;21.182;2022-12-05T00:02:47;1.30;97.70
17066;DHT22;23120;52.336;21.182;2022-12-05T00:05:16;1.20;97.60
17066;DHT22;23120;52.336;21.182;2022-12-05T00:07:43;1.30;97.70
17066;DHT22;23120;52.336;21.182;2022-12-05T00:10:10;1.20;97.60
17066;DHT22;23120;52.336;21.182;2022-12-05T00:12:37;1.20;97.60
17066;DHT22;23120;52.336;21.182;2022-12-05T00:15:05;1.20;97.60
17066;DHT22;23120;52.336;21.182;2022-12-05T00:17:34;1.20;97.60
17066;DHT22;23120;52.336;21.182;2022-12-05T00:20:00;1.20;97.60
17066;DHT22;23120;52.336;21.182;2022-12-05T00:22:29;1.20;97.60
17066;DHT22;23120;52.336;21.182;2022-12-05T00:24:55;1.20;97.60
17066;DHT22;23120;52.336;21.182;2022-12-05T00:27:22;1.20;97.60
17066;DHT22;23120;52.336;21.182;2022-12-05T00:29:49;1.20;97.60
17066;DHT22;23120;52.336;21.182;2022-12-05T00:32:16;1.20;97.60
17066;DHT22;23120;52.336;21.182;2022-12-05T00:34:42;1.20;97.60
17066;DHT22;23120;52.336;21.182;2022-12-05T00:37:09;1.20;97.60
17066;DHT22;23120;52.336;21.182;2022-12-05T00:39:37;1.20;97.60
17066;DHT22;23120;52.336;21.182;2022-12-05T00:42:04;1.20;97.60
17066;DHT22;23120;52.336;21.182;2022-12-05T00:44:31;1.20;97.60
17066;DHT22;23120;52.336;21.182;2022-12-05T00:46:58;1.20;97.60
17066;DHT22;23120;52.336;21.182;2022-12-05T00:49:24;1.20;97.60
17066;DHT22;23120;52.336;21.182;2022-12-05T00:51:51;1.20;97.60
17066;DHT22;23120;52.336;21.182;2022-12-05T00:54:18;1.20;97.60
17066;DHT22;23120;52.336;21.182;2022-12-05T00:56:46;1.20;97.60
17066;DHT22;23120;52.336;21.182;2022-12-05T00:59:16;1.20;97.60
17066;DHT22;23120;52.336;21.182;2022-12-05T01:01:44;1.20;97.60
17066;DHT22;23120;52.336;21.182;2022-12-05T01:04:13;1.10;97.60
17066;DHT22;23120;52.336;21.182;2022-12-05T01:06:40;1.10;97.60
17066;DHT22;23120;52.336;21.182;2022-12-05T01:09:09;1.10;97.60
17066;DHT22;23120;52.336;21.182;2022-12-05T01:11:37;1.10;97.50
17066;DHT22;23120;52.336;21.182;2022-12-05T01:14:05;1.10;97.50
17066;DHT22;23120;52.336;21.182;2022-12-05T01:16:34;1.10;97.50
17066;DHT22;23120;52.336;21.182;2022-12-05T01:19:03;1.10;97.60
17066;DHT22;23120;52.336;21.182;2022-12-05T01:21:31;1.10;97.50
17066;DHT22;23120;52.336;21.182;2022-12-05T01:23:58;1.10;97.50
17066;DHT22;23120;52.336;21.182;2022-12-05T01:26:24;1.10;97.50
17066;DHT22;23120;52.336;21.182;2022-12-05T01:28:51;1.10;97.40
17066;DHT22;23120;52.336;21.182;2022-12-05T01:31:22;1.10;97.40
17066;DHT22;23120;52.336;21.182;2022-12-05T01:33:50;1.10;97.40
17066;DHT22;23120;52.336;21.182;2022-12-05T01:36:17;1.20;97.50
17066;DHT22;23120;52.336;21.182;2022-12-05T01:38:44;1.10;97.40
17066;DHT22;23120;52.336;21.182;2022-12-05T01:41:14;1.10;97.40
17066;DHT22;23120;52.336;21.182;2022-12-05T01:44:00;1.10;97.50
17066;DHT22;23120;52.336;21.182;2022-12-05T01:46:31;1.10;97.50
17066;DHT22;23120;52.336;21.182;2022-12-05T01:49:04;1.10;97.60
17066;DHT22;23120;52.336;21.182;2022-12-05T01:51:33;1.10;97.60
17066;DHT22;23120;52.336;21.182;2022-12-05T01:54:02;1.10;97.50
17066;DHT22;23120;52.336;21.182;2022-12-05T01:56:29;1.10;97.60
17066;DHT22;23120;52.336;21.182;2022-12-05T01:58:58;1.00;97.50
17066;DHT22;23120;52.336;21.182;2022-12-05T02:01:26;1.00;97.50
17066;DHT22;23120;52.336;21.182;2022-12-05T02:03:56;1.00;97.50
17066;DHT22;23120;52.336;21.182;2022-12-05T02:06:24;1.00;97.50
17066;DHT22;23120;52.336;21.182;2022-12-05T02:08:52;1.00;97.50
17066;DHT22;23120;52.336;21.182;2022-12-05T02:11:20;1.00;97.50
17066;DHT22;23120;52.336;21.182;2022-12-05T02:14:05;1.00;97.50
17066;DHT22;23120;52.336;21.182;2022-12-05T02:16:43;1.10;97.50
17066;DHT22;23120;52.336;21.182;2022-12-05T02:19:50;1.00;97.50
17066;DHT22;23120;52.336;21.182;2022-12-05T02:22:32;1.00;97.50
17066;DHT22;23120;52.336;21.182;2022-12-05T02:25:30;1.00;97.50
17066;DHT22;23120;52.336;21.182;2022-12-05T02:28:21;1.00;97.50
17066;DHT22;23120;52.336;21.182;2022-12-05T02:30:58;1.00;97.50
17066;DHT22;23120;52.336;21.182;2022-12-05T02:33:31;1.00;97.50
17066;DHT22;23120;52.336;21.182;2022-12-05T02:36:04;1.00;97.50
17066;DHT22;23120;52.336;21.182;2022-12-05T02:38:37;1.00;97.50
17066;DHT22;23120;52.336;21.182;2022-12-05T02:41:12;1.00;97.40
17066;DHT22;23120;52.336;21.182;2022-12-05T02:43:45;1.00;97.40
17066;DHT22;23120;52.336;21.182;2022-12-05T02:46:20;1.00;97.40
17066;DHT22;23120;52.336;21.182;2022-12-05T02:48:50;0.90;97.50
17066;DHT22;23120;52.336;21.182;2022-12-05T02:51:21;1.00;97.40
17066;DHT22;23120;52.336;21.182;2022-12-05T02:53:51;1.00;97.50
17066;DHT22;23120;52.336;21.182;2022-12-05T02:56:19;1.00;97.50
17066;DHT22;23120;52.336;21.182;2022-12-05T02:58:50;0.90;97.50
17066;DHT22;23120;52.336;21.182;2022-12-05T03:01:21;0.90;97.50
17066;DHT22;23120;52.336;21.182;2022-12-05T03:03:49;1.00;97.50
17066;DHT22;23120;52.336;21.182;2022-12-05T03:06:19;0.90;97.50
17066;DHT22;23120;52.336;21.182;2022-12-05T03:08:49;0.90;97.40
17066;DHT22;23120;52.336;21.182;2022-12-05T03:11:17;0.90;97.50
17066;DHT22;23120;52.336;21.182;2022-12-05T03:13:46;0.90;97.50
17066;DHT22;23120;52.336;21.182;2022-12-05T03:16:19;0.90;97.50
17066;DHT22;23120;52.336;21.182;2022-12-05T03:18:50;0.90;97.50
17066;DHT22;23120;52.336;21.182;2022-12-05T03:21:24;0.90;97.50
17066;DHT22;23120;52.336;21.182;2022-12-05T03:23:56;0.90;97.40
17066;DHT22;23120;52.336;21.182;2022-12-05T03:26:35;0.90;97.40
17066;DHT22;23120;52.336;21.182;2022-12-05T03:29:13;0.90;97.40
17066;DHT22;23120;52.336;21.182;2022-12-05T03:31:49;0.90;97.40
17066;DHT22;23120;52.336;21.182;2022-12-05T03:34:25;0.90;97.50
17066;DHT22;23120;52.336;21.182;2022-12-05T03:36:58;0.80;97.40
17066;DHT22;23120;52.336;21.182;2022-12-05T03:39:32;0.80;97.40
17066;DHT22;23120;52.336;21.182;2022-12-05T03:42:06;0.80;97.40
17066;DHT22;23120;52.336;21.182;2022-12-05T03:44:37;0.80;97.70
17066;DHT22;23120;52.336;21.182;2022-12-05T03:47:12;0.90;97.50
17066;DHT22;23120;52.336;21.182;2022-12-05T03:49:43;0.90;97.40
17066;DHT22;23120;52.336;21.182;2022-12-05T03:52:14;0.90;97.50
17066;DHT22;23120;52.336;21.182;2022-12-05T03:54:45;0.90;97.40
17066;DHT22;23120;52.336;21.182;2022-12-05T03:57:16;0.90;97.50
17066;DHT22;23120;52.336;21.182;2022-12-05T03:59:48;0.90;97.30
17066;DHT22;23120;52.336;21.182;2022-12-05T04:02:22;0.80;97.40
17066;DHT22;23120;52.336;21.182;2022-12-05T04:04:54;0.80;97.40
17066;DHT22;23120;52.336;21.182;2022-12-05T04:07:22;0.80;97.40
17066;DHT22;23120;52.336;21.182;2022-12-05T04:09:55;0.80;97.30
17066;DHT22;23120;52.336;21.182;2022-12-05T04:12:27;0.90;97.60
17066;DHT22;23120;52.336;21.182;2022-12-05T04:14:56;0.90;97.30
17066;DHT22;23120;52.336;21.182;2022-12-05T04:17:31;0.90;97.20
17066;DHT22;23120;52.336;21.182;2022-12-05T04:20:02;0.90;97.20
17066;DHT22;23120;52.336;21.182;2022-12-05T04:22:48;0.90;97.30
17066;DHT22;23120;52.336;21.182;2022-12-05T04:25:16;0.90;97.20
17066;DHT22;23120;52.336;21.182;2022-12-05T04:28:10;0.90;97.20
17066;DHT22;23120;52.336;21.182;2022-12-05T04:30:44;0.90;97.20
17066;DHT22;23120;52.336;21.182;2022-12-05T04:33:15;0.90;97.20
17066;DHT22;23120;52.336;21.182;2022-12-05T04:35:46;0.90;97.20
17066;DHT22;23120;52.336;21.182;2022-12-05T04:38:20;0.80;97.20
17066;DHT22;23120;52.336;21.182;2022-12-05T04:40:53;0.80;97.20
17066;DHT22;23120;52.336;21.182;2022-12-05T04:43:20;0.80;97.20
17066;DHT22;23120;52.336;21.182;2022-12-05T04:45:49;0.80;97.30
17066;DHT22;23120;52.336;21.182;2022-12-05T04:48:20;0.90;97.30
17066;DHT22;23120;52.336;21.182;2022-12-05T04:50:50;0.80;97.20
17066;DHT22;23120;52.336;21.182;2022-12-05T04:53:19;0.80;97.20
17066;DHT22;23120;52.336;21.182;2022-12-05T04:55:50;0.80;97.20
17066;DHT22;23120;52.336;21.182;2022-12-05T04:58:21;0.80;97.20
17066;DHT22;23120;52.336;21.182;2022-12-05T05:00:52;0.80;97.10
17066;DHT22;23120;52.336;21.182;2022-12-05T05:03:24;0.80;97.10
17066;DHT22;23120;52.336;21.182;2022-12-05T05:05:54;0.80;97.10
17066;DHT22;23120;52.336;21.182;2022-12-05T05:08:25;0.80;97.10
17066;DHT22;23120;52.336;21.182;2022-12-05T05:11:06;0.80;97.10
17066;DHT22;23120;52.336;21.182;2022-12-05T05:13:35;0.80;97.00
17066;DHT22;23120;52.336;21.182;2022-12-05T05:16:02;0.80;97.00
17066;DHT22;23120;52.336;21.182;2022-12-05T05:18:30;0.80;97.10
17066;DHT22;23120;52.336;21.182;2022-12-05T05:20:57;0.80;97.00
17066;DHT22;23120;52.336;21.182;2022-12-05T05:23:23;0.80;97.00
17066;DHT22;23120;52.336;21.182;2022-12-05T05:25:54;0.80;97.00
17066;DHT22;23120;52.336;21.182;2022-12-05T05:28:21;0.80;97.00
17066;DHT22;23120;52.336;21.182;2022-12-05T05:30:48;0.80;97.00
17066;DHT22;23120;52.336;21.182;2022-12-05T05:33:15;0.80;97.00
17066;DHT22;23120;52.336;21.182;2022-12-05T05:35:43;0.80;97.00
17066;DHT22;23120;52.336;21.182;2022-12-05T05:38:10;0.80;97.00
17066;DHT22;23120;52.336;21.182;2022-12-05T05:40:36;0.80;97.00
17066;DHT22;23120;52.336;21.182;2022-12-05T05:43:03;0.80;97.00
17066;DHT22;23120;52.336;21.182;2022-12-05T05:45:30;0.80;97.00
17066;DHT22;23120;52.336;21.182;2022-12-05T05:47:57;0.80;97.00
17066;DHT22;23120;52.336;21.182;2022-12-05T05:50:23;0.80;97.00
17066;DHT22;23120;52.336;21.182;2022-12-05T05:52:51;0.80;97.00
17066;DHT22;23120;52.336;21.182;2022-12-05T05:55:18;0.70;96.90
17066;DHT22;23120;52.336;21.182;2022-12-05T05:57:45;0.80;97.00
17066;DHT22;23120;52.336;21.182;2022-12-05T06:00:13;0.80;97.00
17066;DHT22;23120;52.336;21.182;2022-12-05T06:02:40;0.80;97.00
17066;DHT22;23120;52.336;21.182;2022-12-05T06:05:07;0.80;96.90
17066;DHT22;23120;52.336;21.182;2022-12-05T06:07:34;0.80;96.90
17066;DHT22;23120;52.336;21.182;2022-12-05T06:10:03;0.80;96.90
17066;DHT22;23120;52.336;21.182;2022-12-05T06:12:30;0.80;97.20
17066;DHT22;23120;52.336;21.182;2022-12-05T06:14:56;0.80;96.90
17066;DHT22;23120;52.336;21.182;2022-12-05T06:17:23;0.80;96.90
17066;DHT22;23120;52.336;21.182;2022-12-05T06:19:50;0.80;96.90
17066;DHT22;23120;52.336;21.182;2022-12-05T06:22:17;0.80;96.90
17066;DHT22;23120;52.336;21.182;2022-12-05T06:24:43;0.80;96.90
17066;DHT22;23120;52.336;21.182;2022-12-05T06:27:11;0.70;96.80
17066;DHT22;23120;52.336;21.182;2022-12-05T06:29:38;0.80;96.90
17066;DHT22;23120;52.336;21.182;2022-12-05T06:32:05;0.80;96.90
17066;DHT22;23120;52.336;21.182;2022-12-05T06:34:32;0.70;96.90
17066;DHT22;23120;52.336;21.182;2022-12-05T06:37:00;0.80;96.90
17066;DHT22;23120;52.336;21.182;2022-12-05T06:39:26;0.80;96.90
17066;DHT22;23120;52.336;21.182;2022-12-05T06:41:53;0.80;96.90
17066;DHT22;23120;52.336;21.182;2022-12-05T06:44:21;0.80;96.90
17066;DHT22;23120;52.336;21.182;2022-12-05T06:46:51;0.80;96.90
17066;DHT22;23120;52.336;21.182;2022-12-05T06:49:18;0.80;96.90
17066;DHT22;23120;52.336;21.182;2022-12-05T06:51:45;0.80;97.00
17066;DHT22;23120;52.336;21.182;2022-12-05T06:54:12;0.80;97.00
17066;DHT22;23120;52.336;21.182;2022-12-05T06:56:39;0.80;97.00
17066;DHT22;23120;52.336;21.182;2022-12-05T06:59:06;0.80;97.00
17066;DHT22;23120;52.336;21.182;2022-12-05T07:01:34;0.80;96.90
17066;DHT22;23120;52.336;21.182;2022-12-05T07:04:11;0.80;97.00
17066;DHT22;23120;52.336;21.182;2022-12-05T07:06:38;0.80;97.00
17066;DHT22;23120;52.336;21.182;2022-12-05T07:09:05;0.80;96.90
17066;DHT22;23120;52.336;21.182;2022-12-05T07:11:33;0.90;96.90
17066;DHT22;23120;52.336;21.182;2022-12-05T07:14:00;0.90;96.90
17066;DHT22;23120;52.336;21.182;2022-12-05T07:16:26;0.90;97.00
17066;DHT22;23120;52.336;21.182;2022-12-05T07:18:54;0.90;97.00
17066;DHT22;23120;52.336;21.182;2022-12-05T07:21:22;0.90;97.00
17066;DHT22;23120;52.336;21.182;2022-12-05T07:23:48;0.90;97.00
17066;DHT22;23120;52.336;21.182;2022-12-05T07:26:18;0.90;97.00
17066;DHT22;23120;52.336;21.182;2022-12-05T07:28:45;0.90;96.90
17066;DHT22;23120;52.336;21.182;2022-12-05T07:31:13;0.90;96.90
17066;DHT22;23120;52.336;21.182;2022-12-05T07:33:41;1.00;97.00
17066;DHT22;23120;52.336;21.182;2022-12-05T07:36:11;0.90;96.90
17066;DHT22;23120;52.336;21.182;2022-12-05T07:38:39;1.00;97.00
17066;DHT22;23120;52.336;21.182;2022-12-05T07:41:06;1.00;97.00
17066;DHT22;23120;52.336;21.182;2022-12-05T07:43:33;1.00;97.00
17066;DHT22;23120;52.336;21.182;2022-12-05T07:46:01;1.00;96.90
17066;DHT22;23120;52.336;21.182;2022-12-05T07:48:28;1.00;97.00
17066;DHT22;23120;52.336;21.182;2022-12-05T07:50:58;1.00;96.90
17066;DHT22;23120;52.336;21.182;2022-12-05T07:53:27;1.00;96.90
17066;DHT22;23120;52.336;21.182;2022-12-05T07:55:54;1.00;96.90
17066;DHT22;23120;52.336;21.182;2022-12-05T07:58:20;1.00;96.90
17066;DHT22;23120;52.336;21.182;2022-12-05T08:00:47;1.00;96.90
17066;DHT22;23120;52.336;21.182;2022-12-05T08:03:14;1.00;96.90
17066;DHT22;23120;52.336;21.182;2022-12-05T08:05:41;1.10;96.90
17066;DHT22;23120;52.336;21.182;2022-12-05T08:08:07;1.10;96.90
17066;DHT22;23120;52.336;21.182;2022-12-05T08:10:36;1.10;96.80
17066;DHT22;23120;52.336;21.182;2022-12-05T08:13:02;1.10;96.90
17066;DHT22;23120;52.336;21.182;2022-12-05T08:15:29;1.10;96.80
17066;DHT22;23120;52.336;21.182;2022-12-05T08:17:56;1.10;96.90
17066;DHT22;23120;52.336;21.182;2022-12-05T08:20:23;1.10;96.80
17066;DHT22;23120;52.336;21.182;2022-12-05T08:22:50;1.10;96.80
17066;DHT22;23120;52.336;21.182;2022-12-05T08:25:18;1.10;96.80
17066;DHT22;23120;52.336;21.182;2022-12-05T08:27:46;1.20;96.70
17066;DHT22;23120;52.336;21.182;2022-12-05T08:30:13;1.20;96.80
17066;DHT22;23120;52.336;21.182;2022-12-05T08:32:39;1.20;96.70
17066;DHT22;23120;52.336;21.182;2022-12-05T08:35:07;1.20;96.70
17066;DHT22;23120;52.336;21.182;2022-12-05T08:37:34;1.20;96.70
17066;DHT22;23120;52.336;21.182;2022-12-05T08:40:01;1.20;96.70
17066;DHT22;23120;52.336;21.182;2022-12-05T08:42:28;1.30;96.70
17066;DHT22;23120;52.336;21.182;2022-12-05T08:44:57;1.30;96.60
17066;DHT22;23120;52.336;21.182;2022-12-05T08:47:24;1.30;96.60
17066;DHT22;23120;52.336;21.182;2022-12-05T08:49:50;1.30;96.60
17066;DHT22;23120;52.336;21.182;2022-12-05T08:52:17;1.30;96.60
17066;DHT22;23120;52.336;21.182;2022-12-05T08:54:44;1.40;96.60
17066;DHT22;23120;52.336;21.182;2022-12-05T08:57:11;1.40;96.60
17066;DHT22;23120;52.336;21.182;2022-12-05T08:59:38;1.40;96.60
17066;DHT22;23120;52.336;21.182;2022-12-05T09:02:07;1.40;96.60
17066;DHT22;23120;52.336;21.182;2022-12-05T09:04:34;1.40;96.50
17066;DHT22;23120;52.336;21.182;2022-12-05T09:07:02;1.40;96.50
17066;DHT22;23120;52.336;21.182;2022-12-05T09:09:29;1.40;96.50
17066;DHT22;23120;52.336;21.182;2022-12-05T09:11:57;1.40;96.50
17066;DHT22;23120;52.336;21.182;2022-12-05T09:14:24;1.50;96.50
17066;DHT22;23120;52.336;21.182;2022-12-05T09:16:57;1.50;96.50
17066;DHT22;23120;52.336;21.182;2022-12-05T09:19:27;1.50;96.80
17066;DHT22;23120;52.336;21.182;2022-12-05T09:21:54;1.50;96.50
17066;DHT22;23120;52.336;21.182;2022-12-05T09:24:23;1.50;96.40
17066;DHT22;23120;52.336;21.182;2022-12-05T09:26:50;1.50;96.40
17066;DHT22;23120;52.336;21.182;2022-12-05T09:29:17;1.60;96.40
17066;DHT22;23120;52.336;21.182;2022-12-05T09:31:45;1.60;96.30
17066;DHT22;23120;52.336;21.182;2022-12-05T09:34:12;1.60;96.30
17066;DHT22;23120;52.336;21.182;2022-12-05T09:36:41;1.50;96.30
17066;DHT22;23120;52.336;21.182;2022-12-05T09:39:09;1.60;96.30
17066;DHT22;23120;52.336;21.182;2022-12-05T09:41:53;1.60;96.30
17066;DHT22;23120;52.336;21.182;2022-12-05T09:44:48;1.60;96.30
17066;DHT22;23120;52.336;21.182;2022-12-05T09:47:27;1.60;96.30
17066;DHT22;23120;52.336;21.182;2022-12-05T09:49:57;1.60;96.30
17066;DHT22;23120;52.336;21.182;2022-12-05T09:52:29;1.60;96.60
17066;DHT22;23120;52.336;21.182;2022-12-05T09:55:02;1.60;96.30
17066;DHT22;23120;52.336;21.182;2022-12-05T09:57:34;1.60;96.30
17066;DHT22;23120;52.336;21.182;2022-12-05T10:00:05;1.70;96.40
17066;DHT22;23120;52.336;21.182;2022-12-05T10:02:39;1.70;96.40
17066;DHT22;23120;52.336;21.182;2022-12-05T10:05:15;1.60;96.30
17066;DHT22;23120;52.336;21.182;2022-12-05T10:07:52;1.60;96.30
17066;DHT22;23120;52.336;21.182;2022-12-05T10:10:30;1.60;96.30
17066;DHT22;23120;52.336;21.182;2022-12-05T10:13:13;1.60;96.30
17066;DHT22;23120;52.336;21.182;2022-12-05T10:15:45;1.70;96.40
17066;DHT22;23120;52.336;21.182;2022-12-05T10:18:25;1.70;96.40
17066;DHT22;23120;52.336;21.182;2022-12-05T10:20:56;1.70;96.30
17066;DHT22;23120;52.336;21.182;2022-12-05T10:23:26;1.70;96.30
17066;DHT22;23120;52.336;21.182;2022-12-05T10:25:57;1.80;96.40
17066;DHT22;23120;52.336;21.182;2022-12-05T10:28:30;1.70;96.30
17066;DHT22;23120;52.336;21.182;2022-12-05T10:31:03;1.80;96.20
17066;DHT22;23120;52.336;21.182;2022-12-05T10:33:36;1.80;96.20
17066;DHT22;23120;52.336;21.182;2022-12-05T10:36:09;1.90;96.20
17066;DHT22;23120;52.336;21.182;2022-12-05T10:38:38;1.90;96.20
17066;DHT22;23120;52.336;21.182;2022-12-05T10:41:08;1.90;96.10
17066;DHT22;23120;52.336;21.182;2022-12-05T10:43:37;1.90;96.10
17066;DHT22;23120;52.336;21.182;2022-12-05T10:46:05;1.90;96.10
17066;DHT22;23120;52.336;21.182;2022-12-05T10:48:35;2.00;96.10
17066;DHT22;23120;52.336;21.182;2022-12-05T10:51:03;2.00;96.10
17066;DHT22;23120;52.336;21.182;2022-12-05T10:53:39;2.00;96.10
17066;DHT22;23120;52.336;21.182;2022-12-05T10:56:39;2.00;96.00
17066;DHT22;23120;52.336;21.182;2022-12-05T10:59:07;2.00;96.00
17066;DHT22;23120;52.336;21.182;2022-12-05T11:01:35;2.00;95.90
17066;DHT22;23120;52.336;21.182;2022-12-05T11:04:09;2.00;95.90
17066;DHT22;23120;52.336;21.182;2022-12-05T11:06:50;2.00;95.80
17066;DHT22;23120;52.336;21.182;2022-12-05T11:09:20;2.00;95.80
17066;DHT22;23120;52.336;21.182;2022-12-05T11:12:13;2.00;95.80
17066;DHT22;23120;52.336;21.182;2022-12-05T11:14:54;2.10;95.80
17066;DHT22;23120;52.336;21.182;2022-12-05T11:17:24;2.10;95.80
17066;DHT22;23120;52.336;21.182;2022-12-05T11:19:52;2.10;95.80
17066;DHT22;23120;52.336;21.182;2022-12-05T11:22:19;2.10;95.80
17066;DHT22;23120;52.336;21.182;2022-12-05T11:24:56;2.10;95.80
17066;DHT22;23120;52.336;21.182;2022-12-05T11:27:27;2.10;95.80
17066;DHT22;23120;52.336;21.182;2022-12-05T11:29:57;2.20;95.90
17066;DHT22;23120;52.336;21.182;2022-12-05T11:32:27;2.10;95.80
17066;DHT22;23120;52.336;21.182;2022-12-05T11:35:02;2.10;95.80
17066;DHT22;23120;52.336;21.182;2022-12-05T11:37:44;2.10;95.80
17066;DHT22;23120;52.336;21.182;2022-12-05T11:40:16;2.10;95.80
17066;DHT22;23120;52.336;21.182;2022-12-05T11:43:10;2.10;95.80
17066;DHT22;23120;52.336;21.182;2022-12-05T11:45:50;2.10;95.80
17066;DHT22;23120;52.336;21.182;2022-12-05T11:48:35;2.20;95.80
17066;DHT22;23120;52.336;21.182;2022-12-05T11:51:15;2.20;95.70
17066;DHT22;23120;52.336;21.182;2022-12-05T11:56:42;2.20;95.70
17066;DHT22;23120;52.336;21.182;2022-12-05T11:59:25;2.20;95.70
17066;DHT22;23120;52.336;21.182;2022-12-05T12:02:03;2.20;95.70
17066;DHT22;23120;52.336;21.182;2022-12-05T12:04:46;2.20;95.70
17066;DHT22;23120;52.336;21.182;2022-12-05T12:07:28;2.20;95.70
17066;DHT22;23120;52.336;21.182;2022-12-05T12:10:13;2.30;95.80
17066;DHT22;23120;52.336;21.182;2022-12-05T12:12:52;2.30;95.80
17066;DHT22;23120;52.336;21.182;2022-12-05T12:15:35;2.30;95.80
17066;DHT22;23120;52.336;21.182;2022-12-05T12:18:11;2.30;95.80
17066;DHT22;23120;52.336;21.182;2022-12-05T12:20:51;2.30;95.80
17066;DHT22;23120;52.336;21.182;2022-12-05T12:23:34;2.30;95.80
17066;DHT22;23120;52.336;21.182;2022-12-05T12:26:10;2.30;95.80
17066;DHT22;23120;52.336;21.182;2022-12-05T12:28:44;2.30;95.80
17066;DHT22;23120;52.336;21.182;2022-12-05T12:31:22;2.30;95.80
17066;DHT22;23120;52.336;21.182;2022-12-05T12:33:55;2.30;95.80
17066;DHT22;23120;52.336;21.182;2022-12-05T12:36:26;2.30;95.80
17066;DHT22;23120;52.336;21.182;2022-12-05T12:39:12;2.30;95.80
17066;DHT22;23120;52.336;21.182;2022-12-05T12:41:54;2.30;95.70
17066;DHT22;23120;52.336;21.182;2022-12-05T12:44:48;2.30;95.70
17066;DHT22;23120;52.336;21.182;2022-12-05T12:47:24;2.30;95.70
17066;DHT22;23120;52.336;21.182;2022-12-05T12:50:02;2.30;95.80
17066;DHT22;23120;52.336;21.182;2022-12-05T12:52:44;2.20;95.80
17066;DHT22;23120;52.336;21.182;2022-12-05T12:55:21;2.20;95.80
17066;DHT22;23120;52.336;21.182;2022-12-05T12:58:02;2.20;95.90
17066;DHT22;23120;52.336;21.182;2022-12-05T13:00:43;2.20;95.80
17066;DHT22;23120;52.336;21.182;2022-12-05T13:03:18;2.20;95.90
17066;DHT22;23120;52.336;21.182;2022-12-05T13:05:49;2.20;95.90
17066;DHT22;23120;52.336;21.182;2022-12-05T13:08:23;2.20;95.90
17066;DHT22;23120;52.336;21.182;2022-12-05T13:10:51;2.20;95.90
17066;DHT22;23120;52.336;21.182;2022-12-05T13:13:21;2.20;95.90
17066;DHT22;23120;52.336;21.182;2022-12-05T13:15:52;2.20;95.90
17066;DHT22;23120;52.336;21.182;2022-12-05T13:18:22;2.20;95.90
17066;DHT22;23120;52.336;21.182;2022-12-05T13:20:51;2.20;95.90
17066;DHT22;23120;52.336;21.182;2022-12-05T13:23:21;2.20;95.90
17066;DHT22;23120;52.336;21.182;2022-12-05T13:25:50;2.20;95.90
17066;DHT22;23120;52.336;21.182;2022-12-05T13:28:25;2.20;95.90
17066;DHT22;23120;52.336;21.182;2022-12-05T13:30:54;2.20;95.90
17066;DHT22;23120;52.336;21.182;2022-12-05T13:33:31;2.20;95.90
17066;DHT22;23120;52.336;21.182;2022-12-05T13:36:04;2.20;95.90
17066;DHT22;23120;52.336;21.182;2022-12-05T13:38:55;2.10;95.80
17066;DHT22;23120;52.336;21.182;2022-12-05T13:41:42;2.20;95.90
17066;DHT22;23120;52.336;21.182;2022-12-05T13:44:31;2.20;95.90
17066;DHT22;23120;52.336;21.182;2022-12-05T13:47:02;2.10;95.90
17066;DHT22;23120;52.336;21.182;2022-12-05T13:49:35;2.20;96.00
17066;DHT22;23120;52.336;21.182;2022-12-05T13:52:10;2.10;96.00
17066;DHT22;23120;52.336;21.182;2022-12-05T13:54:42;2.10;96.00
17066;DHT22;23120;52.336;21.182;2022-12-05T13:57:45;2.10;96.00
17066;DHT22;23120;52.336;21.182;2022-12-05T14:00:32;2.10;96.10
17066;DHT22;23120;52.336;21.182;2022-12-05T14:03:04;2.10;96.00
17066;DHT22;23120;52.336;21.182;2022-12-05T14:05:55;2.10;96.00
17066;DHT22;23120;52.336;21.182;2022-12-05T14:08:50;2.10;96.00
17066;DHT22;23120;52.336;21.182;2022-12-05T14:11:17;2.00;96.00
17066;DHT22;23120;52.336;21.182;2022-12-05T14:13:44;2.00;96.00
17066;DHT22;23120;52.336;21.182;2022-12-05T14:16:44;2.00;96.00
17066;DHT22;23120;52.336;21.182;2022-12-05T14:19:36;2.00;96.00
17066;DHT22;23120;52.336;21.182;2022-12-05T14:22:26;2.00;96.10
17066;DHT22;23120;52.336;21.182;2022-12-05T14:25:00;2.00;96.10
17066;DHT22;23120;52.336;21.182;2022-12-05T14:27:45;2.00;96.10
17066;DHT22;23120;52.336;21.182;2022-12-05T14:30:20;2.00;96.10
17066;DHT22;23120;52.336;21.182;2022-12-05T14:32:49;2.00;96.10
17066;DHT22;23120;52.336;21.182;2022-12-05T14:35:21;2.00;96.20
17066;DHT22;23120;52.336;21.182;2022-12-05T14:37:51;2.00;96.20
17066;DHT22;23120;52.336;21.182;2022-12-05T14:40:24;2.00;96.20
17066;DHT22;23120;52.336;21.182;2022-12-05T14:42:55;1.90;96.20
17066;DHT22;23120;52.336;21.182;2022-12-05T14:45:27;1.90;96.20
17066;DHT22;23120;52.336;21.182;2022-12-05T14:47:57;1.90;96.30
17066;DHT22;23120;52.336;21.182;2022-12-05T14:50:50;1.90;96.30
17066;DHT22;23120;52.336;21.182;2022-12-05T14:53:31;1.90;96.30
17066;DHT22;23120;52.336;21.182;2022-12-05T14:56:09;1.90;96.30
17066;DHT22;23120;52.336;21.182;2022-12-05T14:58:47;1.90;96.30
17066;DHT22;23120;52.336;21.182;2022-12-05T15:01:18;1.90;96.30
17066;DHT22;23120;52.336;21.182;2022-12-05T15:04:03;1.90;96.40
17066;DHT22;23120;52.336;21.182;2022-12-05T15:06:34;1.90;96.50
17066;DHT22;23120;52.336;21.182;2022-12-05T15:09:06;1.90;96.50
17066;DHT22;23120;52.336;21.182;2022-12-05T15:11:36;1.80;96.50
17066;DHT22;23120;52.336;21.182;2022-12-05T15:14:10;1.80;96.50
17066;DHT22;23120;52.336;21.182;2022-12-05T15:16:42;1.80;96.50
17066;DHT22;23120;52.336;21.182;2022-12-05T15:19:16;1.80;96.50
17066;DHT22;23120;52.336;21.182;2022-12-05T15:21:47;1.80;96.50
17066;DHT22;23120;52.336;21.182;2022-12-05T15:24:17;1.80;96.40
17066;DHT22;23120;52.336;21.182;2022-12-05T15:26:45;1.80;96.40
17066;DHT22;23120;52.336;21.182;2022-12-05T15:29:15;1.80;96.50
17066;DHT22;23120;52.336;21.182;2022-12-05T15:31:45;1.80;96.50
17066;DHT22;23120;52.336;21.182;2022-12-05T15:34:15;1.80;96.50
17066;DHT22;23120;52.336;21.182;2022-12-05T15:36:48;1.80;96.50
17066;DHT22;23120;52.336;21.182;2022-12-05T15:39:18;1.80;96.60
17066;DHT22;23120;52.336;21.182;2022-12-05T15:41:49;1.80;96.60
17066;DHT22;23120;52.336;21.182;2022-12-05T15:44:17;1.80;96.60
17066;DHT22;23120;52.336;21.182;2022-12-05T15:46:49;1.80;96.60
17066;DHT22;23120;52.336;21.182;2022-12-05T15:49:21;1.80;96.60
17066;DHT22;23120;52.336;21.182;2022-12-05T15:51:52;1.80;96.50
17066;DHT22;23120;52.336;21.182;2022-12-05T15:54:25;1.80;96.50
17066;DHT22;23120;52.336;21.182;2022-12-05T15:56:58;1.80;96.50
17066;DHT22;23120;52.336;21.182;2022-12-05T15:59:34;1.80;96.60
17066;DHT22;23120;52.336;21.182;2022-12-05T16:02:10;1.80;96.90